LFLS/GNB METAR and TAF weather

Enter ICAO airport designator
Station Type Date Time Source
LFLS METAR 2019/06/18 04:30 UTC NOAA

LFLS 180430Z AUTO 07008KT CAVOK 15/14 Q1016 NOSIG


Station Type Date Time Source
LFLS Decoded METAR 2019/06/18 04:30 UTC NOAA

Grenoble / St. Geoirs, France (LFLS) 45-22N 005-20E 386M
Jun 18, 2019 - 12:30 AM EDT / 2019.06.18 0430 UTC
Wind: from the ENE (070 degrees) at 9 MPH (8 KT):0
Visibility: greater than 7 mile(s):0
Temperature: 59 F (15 C)
Dew Point: 57 F (14 C)
Relative Humidity: 93%
Pressure (altimeter): 30.00 in. Hg (1016 hPa)
ob: LFLS 180430Z AUTO 07008KT CAVOK 15/14 Q1016 NOSIG
cycle: 4

Station Type Date Time Source
LFLS TAF 2019/06/18 03:42 UTC NOAA

TAF LFLS 180200Z 1803/1903 09007KT CAVOK
BECMG 1810/1812 18008KT

Example: see airport list